Time;durP1;ratioP1;P1;durP2;ratioP2;P2;SDS_P1;SDS_P2;PMS_P1;PMS_P2;Temp;Humidity;BMP_temperature;BMP_pressure;BME280_temperature;BME280_humidity;BME280_pressure;Samples;Min_cycle;Max_cycle;Signal;HPM_P1;HPM_P2
2024/01/13 00:01:50;;;;;;;14.90;9.90;;;;;;;4.08;100.00;102838.19;5233429;28;20037;-80
2024/01/13 00:04:21;;;;;;;14.75;10.40;;;;;;;4.06;100.00;102831.38;5236569;28;20034;-80
2024/01/13 00:06:53;;;;;;;12.40;9.43;;;;;;;4.05;100.00;102827.94;5233919;28;20045;-80
2024/01/13 00:09:25;;;;;;;13.43;10.05;;;;;;;4.07;100.00;102830.47;5235126;28;20041;-80
2024/01/13 00:11:57;;;;;;;16.05;9.35;;;;;;;4.03;100.00;102821.91;5233903;28;20041;-80
2024/01/13 00:14:29;;;;;;;15.20;9.18;;;;;;;4.06;100.00;102816.66;5234062;28;20025;-80
2024/01/13 00:17:01;;;;;;;11.35;8.98;;;;;;;4.08;100.00;102806.22;5235315;28;20038;-80
2024/01/13 00:19:33;;;;;;;12.85;9.55;;;;;;;4.04;100.00;102802.00;5234704;28;20045;-80
2024/01/13 00:22:05;;;;;;;14.32;8.65;;;;;;;3.97;100.00;102788.34;5235565;28;20035;-80
2024/01/13 00:24:37;;;;;;;14.80;8.40;;;;;;;4.09;100.00;102800.16;5244263;28;20041;-80
2024/01/13 00:27:09;;;;;;;10.57;7.35;;;;;;;4.09;100.00;102801.03;5231149;28;20029;-80
2024/01/13 00:29:40;;;;;;;11.63;8.30;;;;;;;4.07;100.00;102795.00;5229551;28;20029;-80
2024/01/13 00:32:12;;;;;;;11.27;8.32;;;;;;;4.12;100.00;102800.06;5229269;28;20021;-80
2024/01/13 00:34:44;;;;;;;10.25;8.13;;;;;;;4.12;100.00;102793.13;5227245;28;20030;-80
2024/01/13 00:37:16;;;;;;;12.50;8.38;;;;;;;4.10;100.00;102789.75;5229143;28;20029;-80
2024/01/13 00:39:48;;;;;;;11.02;8.00;;;;;;;4.15;100.00;102793.06;5229075;28;20051;-80
2024/01/13 00:42:20;;;;;;;11.88;8.30;;;;;;;4.11;100.00;102781.06;5230327;28;20033;-80
2024/01/13 00:44:52;;;;;;;10.88;7.85;;;;;;;4.19;100.00;102788.63;5228984;28;20049;-80
2024/01/13 00:47:24;;;;;;;9.38;7.68;;;;;;;4.14;100.00;102781.00;5229395;28;20041;-80
2024/01/13 00:49:55;;;;;;;11.30;7.95;;;;;;;4.10;100.00;102779.38;5229472;28;20047;-80
2024/01/13 00:52:27;;;;;;;12.05;8.38;;;;;;;4.09;100.00;102779.38;5229875;28;20026;-80
2024/01/13 00:54:59;;;;;;;11.32;7.65;;;;;;;4.10;100.00;102773.34;5229732;28;20051;-80
2024/01/13 00:57:31;;;;;;;9.20;7.32;;;;;;;4.10;100.00;102773.34;5234089;28;20466;-80
2024/01/13 01:00:03;;;;;;;10.30;7.50;;;;;;;4.11;100.00;102778.47;5232938;28;20033;-80
2024/01/13 01:02:36;;;;;;;10.18;7.45;;;;;;;4.11;100.00;102767.25;5233309;28;20394;-80
2024/01/13 01:05:08;;;;;;;10.95;7.75;;;;;;;4.08;100.00;102764.72;5233363;28;20033;-80
2024/01/13 01:07:40;;;;;;;9.38;7.30;;;;;;;4.11;100.00;102765.50;5234196;28;20402;-80
2024/01/13 01:10:12;;;;;;;9.40;7.85;;;;;;;4.11;100.00;102764.66;5232804;28;20036;-80
2024/01/13 01:12:43;;;;;;;9.52;7.45;;;;;;;4.09;100.00;102762.13;5234080;28;20037;-80
2024/01/13 01:15:15;;;;;;;10.80;7.75;;;;;;;4.02;100.00;102747.59;5233483;28;20040;-80
2024/01/13 01:17:47;;;;;;;9.80;8.10;;;;;;;4.11;100.00;102760.31;5231824;28;20520;-80
2024/01/13 01:20:20;;;;;;;9.55;7.53;;;;;;;4.11;100.00;102755.13;5233243;28;20039;-80
2024/01/13 01:22:51;;;;;;;10.93;7.85;;;;;;;4.09;100.00;102751.75;5232856;28;20022;-80
2024/01/13 01:25:23;;;;;;;10.30;7.47;;;;;;;4.06;100.00;102749.22;5233326;28;20043;-80
2024/01/13 01:27:55;;;;;;;12.55;7.93;;;;;;;4.03;100.00;102743.25;5231641;28;20021;-80
2024/01/13 01:30:27;;;;;;;11.50;7.68;;;;;;;4.06;100.00;102740.59;5233562;28;20487;-80
2024/01/13 01:32:59;;;;;;;12.63;8.98;;;;;;;4.06;100.00;102738.84;5231867;28;20030;-80
2024/01/13 01:35:31;;;;;;;11.77;8.30;;;;;;;4.04;100.00;102738.03;5232800;28;20045;-80
2024/01/13 01:38:03;;;;;;;11.75;9.20;;;;;;;4.05;100.00;102739.75;5231613;28;20049;-80
2024/01/13 01:40:35;;;;;;;10.77;8.68;;;;;;;4.05;100.00;102725.91;5232331;28;20561;-80
2024/01/13 01:43:07;;;;;;;12.50;8.82;;;;;;;3.97;100.00;102718.31;5229522;28;20025;-80
2024/01/13 01:45:39;;;;;;;13.00;9.05;;;;;;;4.01;100.00;102719.09;5232879;28;20300;-80
2024/01/13 01:48:11;;;;;;;11.63;9.68;;;;;;;4.04;100.00;102724.22;5232363;28;20039;-80
2024/01/13 01:50:43;;;;;;;12.73;9.43;;;;;;;4.05;100.00;102734.56;5232966;28;20025;-80
2024/01/13 01:53:15;;;;;;;11.43;9.60;;;;;;;4.07;100.00;102732.75;5231496;28;20025;-80
2024/01/13 01:55:47;;;;;;;13.20;10.30;;;;;;;4.06;100.00;102736.25;5232567;28;20044;-80
2024/01/13 01:58:20;;;;;;;13.23;9.77;;;;;;;4.05;100.00;102726.78;5232138;28;20025;-80
2024/01/13 02:00:52;;;;;;;14.38;11.25;;;;;;;4.04;100.00;102703.47;5231106;28;20033;-80
2024/01/13 02:03:24;;;;;;;12.43;10.38;;;;;;;4.06;100.00;102720.69;5231887;28;20048;-80
2024/01/13 02:05:58;;;;;;;13.38;10.35;;;;;;;4.01;100.00;102711.31;5231895;28;20478;-80
2024/01/13 02:08:29;;;;;;;14.23;10.80;;;;;;;4.01;100.00;102706.97;5230472;28;20029;-80
2024/01/13 02:11:01;;;;;;;13.85;11.20;;;;;;;4.02;100.00;102716.47;5232698;28;20029;-80
2024/01/13 02:13:33;;;;;;;14.23;10.43;;;;;;;3.99;100.00;102708.78;5231681;28;20042;-81
2024/01/13 02:16:09;;;;;;;13.35;10.55;;;;;;;4.08;100.00;102708.50;5229696;28;20071;-81
2024/01/13 02:18:41;;;;;;;14.02;10.93;;;;;;;4.00;100.00;102709.63;5232207;28;20025;-81
2024/01/13 02:21:13;;;;;;;13.43;10.52;;;;;;;3.99;100.00;102700.16;5233220;28;20040;-81
2024/01/13 02:23:45;;;;;;;14.15;11.00;;;;;;;3.96;100.00;102687.25;5229296;28;20040;-80
2024/01/13 02:26:17;;;;;;;12.68;9.68;;;;;;;4.01;100.00;102685.38;5231901;28;20025;-80
2024/01/13 02:28:49;;;;;;;12.93;11.27;;;;;;;4.03;100.00;102683.63;5232764;28;20045;-81
2024/01/13 02:31:21;;;;;;;13.98;10.98;;;;;;;4.01;100.00;102673.25;5230681;28;20036;-81
2024/01/13 02:33:53;;;;;;;12.38;11.00;;;;;;;4.04;100.00;102683.56;5232534;28;20033;-81
2024/01/13 02:36:25;;;;;;;15.15;10.68;;;;;;;4.01;100.00;102670.66;5229890;28;20056;-80
2024/01/13 02:38:57;;;;;;;12.93;11.35;;;;;;;4.05;100.00;102664.53;5231051;28;20046;-79
2024/01/13 02:41:30;;;;;;;14.85;11.27;;;;;;;4.02;100.00;102667.22;5229712;28;20033;-79
2024/01/13 02:44:02;;;;;;;13.52;11.27;;;;;;;4.04;100.00;102668.00;5231316;28;20375;-80
2024/01/13 02:46:33;;;;;;;12.68;10.60;;;;;;;4.07;100.00;102680.03;5230348;28;20039;-80
2024/01/13 02:49:07;;;;;;;12.25;10.40;;;;;;;4.09;100.00;102666.16;5228974;28;20276;-80
2024/01/13 02:51:39;;;;;;;12.90;10.75;;;;;;;4.02;100.00;102667.22;5231284;28;20067;-79
2024/01/13 02:54:11;;;;;;;13.95;10.80;;;;;;;4.01;100.00;102662.88;5231389;28;20029;-79
2024/01/13 02:56:43;;;;;;;11.48;10.27;;;;;;;4.02;100.00;102662.03;5231237;28;21190;-80
2024/01/13 02:59:15;;;;;;;15.27;10.60;;;;;;;3.97;100.00;102642.28;5230981;28;20044;-79
2024/01/13 03:01:47;;;;;;;12.05;10.35;;;;;;;4.02;100.00;102640.44;5228674;28;20033;-79
2024/01/13 03:04:19;;;;;;;12.70;10.95;;;;;;;4.03;100.00;102647.31;5223866;28;20036;-79
2024/01/13 03:06:51;;;;;;;12.45;11.15;;;;;;;3.98;100.00;102641.38;5226343;28;20479;-79
2024/01/13 03:09:23;;;;;;;12.10;10.32;;;;;;;4.03;100.00;102642.97;5223311;28;20059;-79
2024/01/13 03:11:55;;;;;;;13.65;10.88;;;;;;;4.04;100.00;102638.63;5226993;28;20056;-79
2024/01/13 03:14:27;;;;;;;13.57;10.90;;;;;;;4.08;100.00;102646.25;5227682;28;20036;-79
2024/01/13 03:17:00;;;;;;;;;;;;;;;4.57;100.00;102625.78;5227813;28;20057;-79
2024/01/13 03:19:32;;;;;;;10.02;8.57;;;;;;;4.11;100.00;102624.59;5228964;28;19935;-79
2024/01/13 03:22:04;;;;;;;10.13;8.73;;;;;;;4.06;100.00;102609.16;5228894;28;20035;-79
2024/01/13 03:24:36;;;;;;;9.15;8.25;;;;;;;4.07;100.00;102608.25;5228391;28;20488;-79
2024/01/13 03:27:07;;;;;;;10.35;8.75;;;;;;;4.11;100.00;102598.66;5229654;28;20025;-79
2024/01/13 03:29:39;;;;;;;9.50;8.40;;;;;;;4.14;100.00;102596.81;5228791;28;20721;-79
2024/01/13 03:32:11;;;;;;;8.77;7.88;;;;;;;4.11;100.00;102583.94;5228421;28;20025;-79
2024/01/13 03:34:43;;;;;;;8.27;7.05;;;;;;;4.04;100.00;102572.03;5229786;28;20040;-79
2024/01/13 03:37:15;;;;;;;9.20;6.78;;;;;;;4.10;100.00;102579.66;5227865;28;20041;-79
2024/01/13 03:39:47;;;;;;;6.78;6.00;;;;;;;4.15;100.00;102584.69;5227474;28;20052;-79
2024/01/13 03:42:19;;;;;;;6.95;6.28;;;;;;;4.18;100.00;102581.16;5228952;28;20029;-79
2024/01/13 03:44:51;;;;;;;7.07;5.47;;;;;;;4.20;100.00;102587.97;5229006;28;20697;-79
2024/01/13 03:47:24;;;;;;;5.80;5.15;;;;;;;4.19;100.00;102582.84;5228037;28;20041;-79
2024/01/13 03:49:56;;;;;;;6.00;4.60;;;;;;;4.26;100.00;102576.59;5228753;28;20490;-79
2024/01/13 03:52:27;;;;;;;5.32;4.82;;;;;;;4.22;100.00;102564.59;5231115;28;20021;-79
2024/01/13 03:54:59;;;;;;;6.32;4.82;;;;;;;4.25;100.00;102572.31;5229934;28;20047;-79
2024/01/13 03:57:31;;;;;;;5.25;4.63;;;;;;;4.25;100.00;102573.16;5229702;28;20050;-79
2024/01/13 04:00:04;;;;;;;4.72;4.30;;;;;;;4.28;100.00;102567.00;5228941;28;20035;-79
2024/01/13 04:02:35;;;;;;;6.45;5.05;;;;;;;4.24;100.00;102563.66;5227349;28;20045;-79
2024/01/13 04:05:07;;;;;;;4.72;4.22;;;;;;;4.28;100.00;102564.41;5228908;28;20036;-79
2024/01/13 04:07:39;;;;;;;5.15;4.65;;;;;;;4.33;100.00;102567.72;5230136;28;20116;-78
2024/01/13 04:10:11;;;;;;;5.45;4.40;;;;;;;4.29;100.00;102564.38;5228843;28;20379;-79
2024/01/13 04:12:45;;;;;;;5.40;3.90;;;;;;;4.20;100.00;102551.66;5230140;28;20033;-79
2024/01/13 04:15:16;;;;;;;4.78;3.90;;;;;;;4.22;100.00;102557.66;5229205;28;20387;-79
2024/01/13 04:17:48;;;;;;;5.50;4.00;;;;;;;4.15;100.00;102544.03;5228066;28;20025;-79
2024/01/13 04:20:21;;;;;;;6.40;4.68;;;;;;;4.21;100.00;102548.19;5226929;28;20572;-79
2024/01/13 04:22:53;;;;;;;5.30;4.07;;;;;;;4.23;100.00;102538.59;5228110;28;20487;-78
2024/01/13 04:25:25;;;;;;;4.55;3.85;;;;;;;4.18;100.00;102532.72;5228123;28;20037;-79
2024/01/13 04:27:58;;;;;;;4.85;4.35;;;;;;;4.19;100.00;102544.78;5226385;28;20042;-79
2024/01/13 04:30:30;;;;;;;5.20;4.47;;;;;;;4.19;100.00;102538.75;5230332;28;20025;-79
2024/01/13 04:33:02;;;;;;;9.40;5.72;;;;;;;4.15;100.00;102531.06;5231346;28;20389;-78
2024/01/13 04:35:34;;;;;;;5.80;4.78;;;;;;;4.19;100.00;102533.56;5232096;28;20045;-79
2024/01/13 04:38:05;;;;;;;6.22;5.22;;;;;;;4.17;100.00;102524.97;5231499;28;20042;-79
2024/01/13 04:40:38;;;;;;;5.47;4.90;;;;;;;4.18;100.00;102531.88;5231570;28;20044;-79
2024/01/13 04:43:10;;;;;;;5.85;5.20;;;;;;;4.20;100.00;102530.91;5231531;28;20041;-79
2024/01/13 04:45:42;;;;;;;6.47;4.90;;;;;;;4.23;100.00;102529.97;5232286;28;20288;-78
2024/01/13 04:48:17;;;;;;;7.85;5.80;;;;;;;4.23;100.00;102528.22;5232194;28;20036;-79
2024/01/13 04:50:50;;;;;;;6.13;5.00;;;;;;;4.24;100.00;102532.50;5230815;28;20549;-79
2024/01/13 04:53:22;;;;;;;6.20;5.60;;;;;;;4.25;100.00;102528.19;5233090;28;20025;-78
2024/01/13 04:55:54;;;;;;;6.63;5.65;;;;;;;4.19;100.00;102528.38;5232007;28;20387;-78
2024/01/13 04:58:26;;;;;;;9.73;5.65;;;;;;;4.21;100.00;102529.19;5230756;28;20398;-79
2024/01/13 05:00:58;;;;;;;7.43;5.75;;;;;;;4.17;100.00;102517.19;5228346;28;20030;-78
2024/01/13 05:03:30;;;;;;;8.70;6.05;;;;;;;4.18;100.00;102511.13;5232097;28;20033;-79
2024/01/13 05:06:02;;;;;;;9.60;7.15;;;;;;;4.15;100.00;102514.66;5230511;28;20055;-79
2024/01/13 05:08:34;;;;;;;10.20;7.40;;;;;;;4.14;100.00;102519.00;5228878;28;20372;-78
2024/01/13 05:11:06;;;;;;;10.23;7.25;;;;;;;4.19;100.00;102520.59;5231874;28;20036;-78
2024/01/13 05:13:38;;;;;;;9.18;8.15;;;;;;;4.15;100.00;102519.84;5231501;28;20033;-78
2024/01/13 05:16:10;;;;;;;10.50;9.20;;;;;;;4.11;100.00;102513.91;5231075;28;20065;-79
2024/01/13 05:18:42;;;;;;;10.43;8.95;;;;;;;4.18;100.00;102517.16;5230657;28;20471;-79
2024/01/13 05:21:13;;;;;;;10.70;8.85;;;;;;;4.18;100.00;102511.13;5229918;28;20044;-79
2024/01/13 05:23:45;;;;;;;11.43;10.23;;;;;;;4.18;100.00;102508.53;5231478;28;20038;-79
2024/01/13 05:26:17;;;;;;;15.68;10.35;;;;;;;4.18;100.00;102514.56;5231089;28;20801;-78
2024/01/13 05:28:49;;;;;;;13.82;11.77;;;;;;;4.15;100.00;102518.09;5227253;28;20021;-79
2024/01/13 05:31:22;;;;;;;12.38;11.07;;;;;;;4.18;100.00;102511.97;5229561;28;20033;-78
2024/01/13 05:33:55;;;;;;;16.20;12.48;;;;;;;4.19;100.00;102515.41;5230495;28;20033;-78
2024/01/13 05:36:26;;;;;;;13.23;11.67;;;;;;;4.20;100.00;102506.72;5229733;28;20036;-78
2024/01/13 05:38:58;;;;;;;15.43;12.90;;;;;;;4.18;100.00;102505.94;5227324;28;20586;-78
2024/01/13 05:41:30;;;;;;;14.95;12.52;;;;;;;4.18;100.00;102508.53;5229709;28;20059;-78
2024/01/13 05:44:02;;;;;;;15.95;13.63;;;;;;;4.14;100.00;102500.84;5230879;28;20030;-78
2024/01/13 05:46:34;;;;;;;14.20;12.70;;;;;;;4.19;100.00;102507.63;5231468;28;20208;-78
2024/01/13 05:49:06;;;;;;;16.48;14.05;;;;;;;4.19;100.00;102502.44;5226576;28;20039;-78
2024/01/13 05:51:38;;;;;;;17.15;14.50;;;;;;;4.19;100.00;102503.28;5230290;28;20467;-78
2024/01/13 05:54:10;;;;;;;18.20;15.23;;;;;;;4.16;100.00;102511.16;5231064;28;20029;-78
2024/01/13 05:56:42;;;;;;;18.10;14.48;;;;;;;4.13;100.00;102493.97;5226886;28;20036;-78
2024/01/13 05:59:14;;;;;;;20.48;16.95;;;;;;;4.17;100.00;102504.22;5229444;28;20406;-78
2024/01/13 06:01:45;;;;;;;17.92;16.00;;;;;;;4.14;100.00;102497.41;5224559;28;20029;-78
2024/01/13 06:04:17;;;;;;;18.13;16.27;;;;;;;4.19;100.00;102513.66;5230204;28;20033;-78
2024/01/13 06:06:49;;;;;;;17.65;15.85;;;;;;;4.19;100.00;102513.66;5229985;28;20358;-78
2024/01/13 06:09:21;;;;;;;17.75;15.88;;;;;;;4.19;100.00;102511.06;5227195;28;20487;-78
2024/01/13 06:11:53;;;;;;;19.27;17.27;;;;;;;4.20;100.00;102524.88;5239028;28;20048;-78
2024/01/13 06:14:25;;;;;;;19.42;17.33;;;;;;;4.17;100.00;102514.59;5228898;28;20033;-78
2024/01/13 06:16:57;;;;;;;21.15;17.55;;;;;;;4.18;100.00;102513.72;5225085;28;20029;-79
2024/01/13 06:19:29;;;;;;;19.48;17.38;;;;;;;4.18;100.00;102500.75;5229322;28;20514;-78
2024/01/13 06:22:01;;;;;;;21.60;18.55;;;;;;;4.20;100.00;102496.34;5228469;28;20375;-78
2024/01/13 06:24:33;;;;;;;19.13;16.80;;;;;;;4.15;100.00;102486.13;5229977;28;20060;-78
2024/01/13 06:27:05;;;;;;;20.08;17.98;;;;;;;4.19;100.00;102484.28;5228928;28;20037;-78
2024/01/13 06:29:37;;;;;;;20.08;17.95;;;;;;;4.12;100.00;102461.13;5228053;28;20037;-78
2024/01/13 06:32:09;;;;;;;20.65;18.45;;;;;;;4.07;100.00;102452.66;5229305;28;20037;-78
2024/01/13 06:34:40;;;;;;;20.98;18.38;;;;;;;4.11;100.00;102454.25;5229617;28;20243;-78
2024/01/13 06:37:12;;;;;;;21.38;19.17;;;;;;;4.12;100.00;102448.16;5224930;28;20049;-78
2024/01/13 06:39:44;;;;;;;20.23;18.20;;;;;;;4.09;100.00;102445.69;5226360;28;20070;-78
2024/01/13 06:42:16;;;;;;;21.98;19.58;;;;;;;4.13;100.00;102449.03;5229572;28;20869;-78
2024/01/13 06:44:49;;;;;;;21.10;17.83;;;;;;;4.13;100.00;102455.06;5229653;28;20040;-78
2024/01/13 06:47:21;;;;;;;21.33;19.13;;;;;;;4.14;100.00;102451.56;5228609;28;20032;-78
2024/01/13 06:49:53;;;;;;;22.33;18.27;;;;;;;4.15;100.00;102444.63;5227851;28;20048;-78
2024/01/13 06:52:25;;;;;;;20.52;18.33;;;;;;;4.17;100.00;102449.75;5229105;28;20029;-78
2024/01/13 06:54:57;;;;;;;24.85;18.98;;;;;;;4.14;100.00;102463.69;5228579;28;20188;-78
2024/01/13 06:57:29;;;;;;;21.60;18.52;;;;;;;4.14;100.00;102454.16;5226229;28;20433;-78
2024/01/13 07:00:07;;;;;;;23.05;18.73;;;;;;;4.17;100.00;102447.16;5225475;28;20037;-78
2024/01/13 07:02:39;;;;;;;20.90;18.70;;;;;;;4.15;100.00;102424.72;5229456;28;20040;-78
2024/01/13 07:05:12;;;;;;;21.55;19.25;;;;;;;4.16;100.00;102425.56;5228470;28;20399;-78
2024/01/13 07:07:44;;;;;;;23.88;19.50;;;;;;;4.18;100.00;102421.19;5229328;28;20439;-79
2024/01/13 07:10:16;;;;;;;21.40;18.98;;;;;;;4.17;100.00;102416.03;5230121;28;20044;-79
2024/01/13 07:12:48;;;;;;;22.63;19.38;;;;;;;4.18;100.00;102408.22;5229721;28;20025;-78
2024/01/13 07:15:20;;;;;;;25.48;19.25;;;;;;;4.17;100.00;102406.53;5230458;28;20041;-78
2024/01/13 07:17:52;;;;;;;20.77;18.65;;;;;;;4.16;100.00;102386.66;5226508;28;20041;-78
2024/01/13 07:20:24;;;;;;;22.10;19.42;;;;;;;4.18;100.00;102386.63;5229406;28;20025;-79
2024/01/13 07:22:56;;;;;;;21.58;19.27;;;;;;;4.17;100.00;102390.97;5228100;28;20550;-79
2024/01/13 07:25:30;;;;;;;22.45;19.98;;;;;;;4.17;100.00;102390.09;5229387;28;20033;-79
2024/01/13 07:28:02;;;;;;;21.80;19.63;;;;;;;4.15;100.00;102388.41;5228599;28;20066;-79
2024/01/13 07:30:34;;;;;;;23.75;20.55;;;;;;;4.20;100.00;102384.81;5229289;28;20056;-79
2024/01/13 07:33:06;;;;;;;22.15;18.60;;;;;;;4.19;100.00;102367.56;5229997;28;20025;-79
2024/01/13 07:35:38;;;;;;;23.02;20.52;;;;;;;4.17;100.00;102369.34;5228812;28;20504;-79
2024/01/13 07:38:10;;;;;;;21.10;18.77;;;;;;;4.18;100.00;102376.25;5227096;28;20045;-79
2024/01/13 07:40:41;;;;;;;22.63;19.73;;;;;;;4.19;100.00;102367.56;5227886;28;20056;-78
2024/01/13 07:43:13;;;;;;;22.92;20.30;;;;;;;4.20;100.00;102380.47;5222326;28;20034;-79
2024/01/13 07:45:45;;;;;;;22.58;20.17;;;;;;;4.21;100.00;102379.59;5231127;28;20402;-79
2024/01/13 07:48:17;;;;;;;22.92;20.38;;;;;;;4.21;100.00;102371.81;5229783;28;20035;-79
2024/01/13 07:50:49;;;;;;;22.17;19.90;;;;;;;4.19;100.00;102365.81;5230618;28;20037;-79
2024/01/13 07:53:21;;;;;;;24.73;21.73;;;;;;;4.22;100.00;102364.88;5222029;28;20025;-79
2024/01/13 07:55:53;;;;;;;22.48;20.17;;;;;;;4.17;100.00;102354.66;5223437;28;20092;-79
2024/01/13 07:58:25;;;;;;;20.98;18.70;;;;;;;4.18;100.00;102332.16;5227148;28;20032;-79
2024/01/13 08:00:57;;;;;;;22.50;20.10;;;;;;;4.16;100.00;102334.78;5226697;28;20049;-79
2024/01/13 08:03:29;;;;;;;21.50;19.30;;;;;;;4.22;100.00;102337.19;5227735;28;20040;-79
2024/01/13 08:06:00;;;;;;;21.27;19.05;;;;;;;4.23;100.00;102344.03;5227361;28;20041;-79
2024/01/13 08:08:32;;;;;;;20.92;18.73;;;;;;;4.22;100.00;102357.94;5229536;28;20041;-79
2024/01/13 08:11:04;;;;;;;22.20;19.73;;;;;;;4.23;100.00;102338.84;5229291;28;20025;-78
2024/01/13 08:13:36;;;;;;;21.90;19.70;;;;;;;4.24;100.00;102334.50;5229358;28;20040;-78
2024/01/13 08:16:09;;;;;;;21.83;19.55;;;;;;;4.24;100.00;102324.13;5229404;28;20471;-79
2024/01/13 08:18:41;;;;;;;21.63;19.20;;;;;;;4.26;100.00;102319.75;5230088;28;20489;-79
2024/01/13 08:21:13;;;;;;;21.20;19.10;;;;;;;4.26;100.00;102330.97;5229742;28;20056;-78
2024/01/13 08:23:45;;;;;;;22.30;19.90;;;;;;;4.24;100.00;102335.34;5227822;28;20038;-78
2024/01/13 08:26:17;;;;;;;21.55;19.25;;;;;;;4.28;100.00;102323.13;5228568;28;20048;-78
2024/01/13 08:28:49;;;;;;;21.42;19.17;;;;;;;4.26;100.00;102307.63;5226867;28;20025;-78
2024/01/13 08:31:21;;;;;;;21.75;19.45;;;;;;;4.27;100.00;102296.34;5227741;28;20046;-78
2024/01/13 08:33:53;;;;;;;22.50;20.08;;;;;;;4.27;100.00;102309.31;5227596;28;20037;-78
2024/01/13 08:36:25;;;;;;;21.63;19.17;;;;;;;4.30;100.00;102321.34;5228722;28;20029;-78
2024/01/13 08:38:56;;;;;;;22.92;20.52;;;;;;;4.31;100.00;102305.72;5226751;28;20593;-78
2024/01/13 08:41:31;;;;;;;23.00;20.70;;;;;;;4.33;100.00;102301.31;5228650;28;20037;-78
2024/01/13 08:44:03;;;;;;;22.33;20.00;;;;;;;4.32;100.00;102306.59;5228327;28;20479;-78
2024/01/13 08:46:35;;;;;;;22.48;20.08;;;;;;;4.33;100.00;102305.69;5229997;28;20029;-78
2024/01/13 08:49:08;;;;;;;23.48;21.08;;;;;;;4.31;100.00;102312.66;5228674;28;20051;-78
2024/01/13 08:51:40;;;;;;;26.35;22.27;;;;;;;4.41;100.00;102320.97;5226869;28;20327;-78
2024/01/13 08:54:12;;;;;;;23.55;21.15;;;;;;;4.38;100.00;102330.53;5228594;28;20033;-78
2024/01/13 08:56:44;;;;;;;24.20;21.73;;;;;;;4.38;100.00;102340.06;5226807;28;20047;-78
2024/01/13 08:59:16;;;;;;;25.63;22.90;;;;;;;4.38;100.00;102321.91;5228354;28;20041;-78
2024/01/13 09:01:47;;;;;;;25.58;22.98;;;;;;;4.37;100.00;102322.81;5227711;28;20037;-78
2024/01/13 09:04:19;;;;;;;24.70;22.20;;;;;;;4.40;100.00;102320.13;5227322;28;20398;-78
2024/01/13 09:06:51;;;;;;;25.38;22.75;;;;;;;4.42;100.00;102330.44;5226930;28;20394;-78
2024/01/13 09:09:23;;;;;;;24.52;21.75;;;;;;;4.40;100.00;102317.53;5223270;28;20057;-79
2024/01/13 09:11:55;;;;;;;26.38;23.50;;;;;;;4.37;100.00;102321.06;5223486;28;20056;-78
2024/01/13 09:14:27;;;;;;;25.73;22.98;;;;;;;4.39;100.00;102327.06;5224600;28;20026;-78
2024/01/13 09:16:59;;;;;;;26.30;23.50;;;;;;;4.44;100.00;102321.72;5230936;28;20541;-78
2024/01/13 09:19:31;;;;;;;25.15;22.55;;;;;;;4.47;100.00;102332.00;5232463;28;20037;-78
2024/01/13 09:22:03;;;;;;;24.52;21.80;;;;;;;4.43;100.00;102320.00;5231063;28;20029;-78
2024/01/13 09:24:35;;;;;;;25.67;22.98;;;;;;;4.46;100.00;102322.50;5231419;28;20033;-78
2024/01/13 09:27:07;;;;;;;23.73;21.27;;;;;;;4.37;100.00;102309.84;5230748;28;20235;-78
2024/01/13 09:29:39;;;;;;;24.20;21.25;;;;;;;4.46;100.00;102317.28;5228028;28;20526;-79
2024/01/13 09:32:13;;;;;;;23.55;21.10;;;;;;;4.46;100.00;102312.09;5233507;28;20025;-79
2024/01/13 09:34:44;;;;;;;;;;;;;;;4.98;100.00;102324.94;5248640;28;20048;-80
2024/01/13 09:37:16;;;;;;;29.25;21.08;;;;;;;4.55;100.00;102321.34;5232941;28;19929;-78
2024/01/13 09:39:48;;;;;;;22.30;20.10;;;;;;;4.49;100.00;102318.94;5233367;28;20049;-78
2024/01/13 09:42:29;;;;;;;22.55;20.15;;;;;;;4.60;100.00;102317.66;5231583;28;20044;-78
2024/01/13 09:45:01;;;;;;;23.48;20.75;;;;;;;4.45;100.00;102318.22;5230768;28;20395;-78
2024/01/13 09:47:33;;;;;;;21.73;19.42;;;;;;;4.50;100.00;102310.25;5231046;28;20087;-79
2024/01/13 09:50:07;;;;;;;23.10;20.63;;;;;;;4.50;100.00;102298.13;5231684;28;20067;-79
2024/01/13 09:52:40;;;;;;;21.88;19.38;;;;;;;4.52;100.00;102311.06;5232882;28;20387;-79
2024/01/13 09:55:15;;;;;;;21.23;19.13;;;;;;;4.61;100.00;102300.34;5232920;28;20025;-79
2024/01/13 09:57:47;;;;;;;21.88;19.65;;;;;;;4.54;100.00;102297.09;5229031;28;20482;-79
2024/01/13 10:00:19;;;;;;;23.52;21.13;;;;;;;4.53;100.00;102292.81;5229859;28;20032;-79
2024/01/13 10:02:51;;;;;;;21.35;19.15;;;;;;;4.56;100.00;102297.06;5227228;28;20025;-78
2024/01/13 10:05:24;;;;;;;23.60;20.65;;;;;;;4.57;100.00;102301.34;5231978;28;20095;-79
2024/01/13 10:07:56;;;;;;;21.55;19.33;;;;;;;4.57;100.00;102297.00;5230713;28;20032;-79
2024/01/13 10:10:29;;;;;;;21.33;19.13;;;;;;;4.59;100.00;102289.19;5231264;28;20056;-79
2024/01/13 10:13:00;;;;;;;20.58;18.40;;;;;;;4.58;100.00;102280.53;5236560;28;20043;-79
2024/01/13 10:15:35;;;;;;;19.67;17.67;;;;;;;4.64;100.00;102287.25;5230524;28;20049;-79
2024/01/13 10:18:07;;;;;;;21.73;19.02;;;;;;;4.60;100.00;102288.25;5226074;28;20037;-79
2024/01/13 10:20:39;;;;;;;19.15;17.25;;;;;;;4.61;100.00;102282.16;5229291;28;20044;-79
2024/01/13 10:23:11;;;;;;;20.98;17.88;;;;;;;4.58;100.00;102283.13;5229207;28;20325;-79
2024/01/13 10:25:43;;;;;;;19.92;17.83;;;;;;;4.59;100.00;102283.97;5228406;28;20029;-79
2024/01/13 10:28:15;;;;;;;20.55;17.27;;;;;;;4.60;100.00;102277.88;5227987;28;20030;-79
2024/01/13 10:30:51;;;;;;;19.13;17.13;;;;;;;4.67;100.00;102276.75;5229228;28;20043;-79
2024/01/13 10:33:23;;;;;;;19.00;17.10;;;;;;;4.62;100.00;102273.47;5231287;28;20030;-79
2024/01/13 10:35:55;;;;;;;20.15;17.80;;;;;;;4.59;100.00;102271.00;5229820;28;20037;-79
2024/01/13 10:38:27;;;;;;;19.15;17.15;;;;;;;4.62;100.00;102266.53;5228809;28;20532;-79
2024/01/13 10:40:59;;;;;;;19.90;18.00;;;;;;;4.60;100.00;102265.75;5230573;28;20430;-79
2024/01/13 10:43:32;;;;;;;19.65;17.15;;;;;;;4.61;100.00;102259.63;5228027;28;20040;-79
2024/01/13 10:46:09;;;;;;;18.42;16.60;;;;;;;4.66;100.00;102258.63;5228179;28;20045;-79
2024/01/13 10:48:45;;;;;;;20.15;17.70;;;;;;;4.62;100.00;102263.06;5227680;28;20355;-79
2024/01/13 10:51:37;;;;;;;20.00;16.52;;;;;;;4.86;100.00;102250.94;5229591;28;20033;-78
2024/01/13 10:54:09;;;;;;;19.92;17.13;;;;;;;4.64;100.00;102256.94;5228641;28;20363;-79
2024/01/13 10:56:43;;;;;;;22.00;18.63;;;;;;;4.71;100.00;102254.13;5228541;28;20036;-78
2024/01/13 10:59:16;;;;;;;21.15;18.80;;;;;;;4.68;100.00;102249.03;5226415;28;20486;-79
2024/01/13 11:01:49;;;;;;;19.98;17.88;;;;;;;4.68;100.00;102249.03;5227798;28;20502;-79
2024/01/13 11:04:22;;;;;;;19.77;17.77;;;;;;;4.60;100.00;102216.44;5229526;28;20034;-78
2024/01/13 11:06:54;;;;;;;20.20;18.05;;;;;;;4.61;100.00;102215.50;5227200;28;20036;-79
2024/01/13 11:09:27;;;;;;;20.02;18.00;;;;;;;4.65;100.00;102226.63;5227287;28;20033;-79
2024/01/13 11:12:10;;;;;;;;;;;;;;;5.09;100.00;102227.50;5230250;28;20030;-79
2024/01/13 11:14:58;;;;;;;18.35;16.00;;;;;;;4.77;100.00;102227.91;5228353;28;20127;-79
2024/01/13 11:17:30;;;;;;;19.80;17.75;;;;;;;4.67;100.00;102231.78;5226989;28;20025;-79
2024/01/13 11:20:02;;;;;;;18.10;16.30;;;;;;;4.65;100.00;102224.03;5227416;28;20056;-79
2024/01/13 11:22:37;;;;;;;19.10;17.08;;;;;;;4.71;100.00;102212.59;5228351;28;20037;-79
2024/01/13 11:25:28;;;;;;;18.55;16.73;;;;;;;4.83;100.00;102215.53;5229454;28;20045;-79
2024/01/13 11:28:02;;;;;;;18.25;16.20;;;;;;;4.68;100.00;102210.09;5226164;28;20033;-79
2024/01/13 11:30:40;;;;;;;17.55;15.75;;;;;;;4.76;100.00;102206.31;5228379;28;20033;-80
2024/01/13 11:33:13;;;;;;;17.35;15.38;;;;;;;4.69;100.00;102214.38;5225917;28;20037;-79
2024/01/13 11:35:48;;;;;;;;;;;;;;;5.24;100.00;102207.88;5225937;28;20470;-80
2024/01/13 11:38:20;;;;;;;17.90;16.00;;;;;;;4.78;100.00;102216.66;5226419;28;19924;-79